createdAt,value
2022-08-19T00:02:17.475Z,23.00
2022-08-19T00:07:09.826Z,22.90
2022-08-19T00:12:02.498Z,22.90
2022-08-19T00:16:55.726Z,22.80
2022-08-19T00:21:48.298Z,22.80
2022-08-19T00:26:42.084Z,22.80
2022-08-19T00:31:34.555Z,22.80
2022-08-19T00:36:27.426Z,22.80
2022-08-19T00:41:22.519Z,22.80
2022-08-19T00:46:14.683Z,22.90
2022-08-19T00:51:07.247Z,22.90
2022-08-19T00:56:02.152Z,22.80
2022-08-19T01:00:54.480Z,22.70
2022-08-19T01:05:49.110Z,22.70
2022-08-19T01:10:46.244Z,22.70
2022-08-19T01:15:49.186Z,22.80
2022-08-19T01:20:42.684Z,22.70
2022-08-19T01:25:46.764Z,22.80
2022-08-19T01:30:39.014Z,22.80
2022-08-19T01:35:36.865Z,22.70
2022-08-19T01:40:32.109Z,22.80
2022-08-19T01:45:26.875Z,22.70
2022-08-19T01:50:19.224Z,22.80
2022-08-19T01:55:16.397Z,22.80
2022-08-19T02:00:12.468Z,22.80
2022-08-19T02:05:05.128Z,22.80
2022-08-19T02:09:57.429Z,22.80
2022-08-19T02:14:49.632Z,22.80
2022-08-19T02:19:41.925Z,22.80
2022-08-19T02:24:34.123Z,22.70
2022-08-19T02:29:26.461Z,22.70
2022-08-19T02:34:18.920Z,22.60
2022-08-19T02:39:11.581Z,22.60
2022-08-19T02:44:30.399Z,22.70
2022-08-19T02:49:17.756Z,22.60
2022-08-19T02:54:11.606Z,22.70
2022-08-19T02:59:10.226Z,22.80
2022-08-19T03:04:06.355Z,22.80
2022-08-19T03:08:59.143Z,22.80
2022-08-19T03:13:51.981Z,22.80
2022-08-19T03:18:45.095Z,22.80
2022-08-19T03:23:37.393Z,22.80
2022-08-19T03:28:29.718Z,22.80
2022-08-19T03:33:28.503Z,22.70
2022-08-19T03:38:21.055Z,22.70
2022-08-19T03:43:13.230Z,22.70
2022-08-19T03:48:05.554Z,22.60
2022-08-19T03:52:57.887Z,22.60
2022-08-19T03:57:50.124Z,22.70
2022-08-19T04:02:56.460Z,22.70
2022-08-19T04:07:51.084Z,22.70
2022-08-19T04:12:43.420Z,22.70
2022-08-19T04:17:35.710Z,22.70
2022-08-19T04:22:27.968Z,22.70
2022-08-19T04:27:21.215Z,22.70
2022-08-19T04:32:16.350Z,22.70
2022-08-19T04:37:12.949Z,22.70
2022-08-19T04:42:30.723Z,22.80
2022-08-19T04:47:46.818Z,22.80
2022-08-19T04:52:35.845Z,22.80
2022-08-19T04:57:28.108Z,22.70
2022-08-19T05:02:20.333Z,22.80
2022-08-19T05:07:13.499Z,22.80
2022-08-19T05:12:07.070Z,22.80
2022-08-19T05:17:25.622Z,22.80
2022-08-19T05:22:30.126Z,22.80
2022-08-19T05:27:22.481Z,22.70
2022-08-19T05:32:14.735Z,22.60
2022-08-19T05:37:08.682Z,22.60
2022-08-19T05:42:08.162Z,22.60
2022-08-19T05:47:01.984Z,22.70
2022-08-19T05:51:56.651Z,22.60
2022-08-19T05:56:49.133Z,22.60
2022-08-19T06:01:46.619Z,22.60
2022-08-19T06:06:38.944Z,22.50
2022-08-19T06:11:38.548Z,22.60
2022-08-19T06:16:32.787Z,22.50
2022-08-19T06:21:28.364Z,22.50
2022-08-19T06:26:21.605Z,22.50
2022-08-19T06:31:35.268Z,22.50
2022-08-19T06:36:32.779Z,22.50
2022-08-19T06:41:27.059Z,22.60
2022-08-19T06:46:20.810Z,22.60
2022-08-19T06:51:19.290Z,22.60
2022-08-19T06:56:11.719Z,22.70
2022-08-19T07:01:08.533Z,22.70
2022-08-19T07:06:32.613Z,22.70
2022-08-19T07:11:23.120Z,22.70
2022-08-19T07:16:29.213Z,22.70
2022-08-19T07:21:25.430Z,22.70
2022-08-19T07:26:31.234Z,22.80
2022-08-19T07:31:25.999Z,22.80
2022-08-19T07:36:22.218Z,22.80
2022-08-19T07:41:23.903Z,22.80
2022-08-19T07:46:17.694Z,22.70
2022-08-19T07:51:12.017Z,22.70
2022-08-19T07:56:07.168Z,22.60
2022-08-19T08:01:02.932Z,22.60
2022-08-19T08:06:18.572Z,22.60
2022-08-19T08:11:15.436Z,22.70
2022-08-19T08:16:10.186Z,22.70
2022-08-19T08:21:06.560Z,22.70
2022-08-19T08:25:59.727Z,22.60
2022-08-19T08:30:52.113Z,22.60
2022-08-19T08:35:44.599Z,22.70
2022-08-19T08:40:44.065Z,22.80
2022-08-19T08:45:45.678Z,23.00
2022-08-19T08:50:49.572Z,23.20
2022-08-19T08:55:42.713Z,23.30
2022-08-19T09:00:42.262Z,23.30
2022-08-19T09:05:54.034Z,23.50
2022-08-19T09:10:55.077Z,23.90
2022-08-19T09:16:00.266Z,24.10
2022-08-19T09:20:52.691Z,24.40
2022-08-19T09:25:44.949Z,24.80
2022-08-19T09:30:42.631Z,25.00
2022-08-19T09:35:49.759Z,25.40
2022-08-19T09:40:45.931Z,25.60
2022-08-19T09:45:38.546Z,25.80
2022-08-19T09:50:33.475Z,25.80
2022-08-19T09:55:32.053Z,25.90
2022-08-19T10:00:25.121Z,26.10
2022-08-19T10:05:36.283Z,26.30
2022-08-19T10:10:28.776Z,26.40
2022-08-19T10:15:29.237Z,26.00
2022-08-19T10:20:23.093Z,25.80
2022-08-19T10:25:17.954Z,26.30
2022-08-19T10:30:11.384Z,26.60
2022-08-19T10:35:09.521Z,26.40
2022-08-19T10:40:03.318Z,26.20
2022-08-19T10:44:55.647Z,26.10
2022-08-19T10:50:08.993Z,26.30
2022-08-19T10:55:24.677Z,27.60
2022-08-19T11:00:24.368Z,30.00
2022-08-19T11:05:18.194Z,31.00
2022-08-19T11:10:13.213Z,30.30
2022-08-19T11:15:06.649Z,29.50
2022-08-19T11:19:58.997Z,28.60
2022-08-19T11:24:51.323Z,27.70
2022-08-19T11:29:43.629Z,27.20
2022-08-19T11:34:36.647Z,27.40
2022-08-19T11:39:31.602Z,27.40
2022-08-19T11:44:24.088Z,27.90
2022-08-19T11:49:21.144Z,27.90
2022-08-19T11:54:15.750Z,27.80
2022-08-19T11:59:12.792Z,28.20
2022-08-19T12:04:06.823Z,28.00
2022-08-19T12:09:02.155Z,27.10
2022-08-19T12:13:55.382Z,26.40
2022-08-19T12:18:48.162Z,25.90
2022-08-19T12:23:41.996Z,25.70
2022-08-19T12:28:34.992Z,25.90
2022-08-19T12:34:23.473Z,26.10
2022-08-19T12:40:30.814Z,26.40
2022-08-19T12:46:39.237Z,26.30
2022-08-19T12:52:47.104Z,26.30
2022-08-19T12:58:54.284Z,26.00
2022-08-19T13:05:01.682Z,25.60
2022-08-19T13:11:08.623Z,25.70
2022-08-19T13:17:18.889Z,25.80
2022-08-19T13:23:26.203Z,25.80
2022-08-19T13:29:33.497Z,25.60
2022-08-19T13:35:40.690Z,25.40
2022-08-19T13:41:49.917Z,25.20
2022-08-19T13:47:59.695Z,25.10
2022-08-19T13:54:07.287Z,25.10
2022-08-19T14:00:14.818Z,25.00
2022-08-19T14:06:22.037Z,24.70
2022-08-19T14:12:29.191Z,24.60
2022-08-19T14:18:36.506Z,24.50
2022-08-19T14:24:47.944Z,24.30
2022-08-19T14:30:56.592Z,24.30
2022-08-19T14:36:09.435Z,24.20
2022-08-19T14:41:12.802Z,24.30
2022-08-19T14:46:06.109Z,24.30
2022-08-19T14:50:58.568Z,24.20
2022-08-19T14:55:51.080Z,24.10
2022-08-19T15:00:43.480Z,24.10
2022-08-19T15:05:36.803Z,24.10
2022-08-19T15:10:29.290Z,24.00
2022-08-19T15:15:23.505Z,24.00
2022-08-19T15:20:20.558Z,23.90
2022-08-19T15:25:17.206Z,24.00
2022-08-19T15:30:10.943Z,24.10
2022-08-19T15:35:05.602Z,24.10
2022-08-19T15:39:58.236Z,24.10
2022-08-19T15:44:52.915Z,24.10
2022-08-19T15:49:46.635Z,23.90
2022-08-19T15:54:41.116Z,23.90
2022-08-19T15:59:53.792Z,23.90
2022-08-19T16:05:04.530Z,24.00
2022-08-19T16:09:57.084Z,24.20
2022-08-19T16:14:49.497Z,24.20
2022-08-19T16:19:42.021Z,24.20
2022-08-19T16:24:34.322Z,24.20
2022-08-19T16:29:34.845Z,24.10
2022-08-19T16:34:33.692Z,23.90
2022-08-19T16:39:26.329Z,23.80
2022-08-19T16:44:21.206Z,23.80
2022-08-19T16:49:15.034Z,23.80
2022-08-19T16:54:07.996Z,23.80
2022-08-19T16:59:02.986Z,23.70
2022-08-19T17:03:56.574Z,23.70
2022-08-19T17:08:51.238Z,23.70
2022-08-19T17:13:44.646Z,23.70
2022-08-19T17:18:40.318Z,23.60
2022-08-19T17:23:43.030Z,23.60
2022-08-19T17:28:37.536Z,23.50
2022-08-19T17:33:29.908Z,23.40
2022-08-19T17:38:24.864Z,23.30
2022-08-19T17:43:32.216Z,23.20
2022-08-19T17:48:27.789Z,23.20
2022-08-19T17:53:20.226Z,23.10
2022-08-19T17:58:12.527Z,23.20
2022-08-19T18:03:06.570Z,23.10
2022-08-19T18:08:00.159Z,23.10
2022-08-19T18:12:53.687Z,23.10
2022-08-19T18:17:46.324Z,23.00
2022-08-19T18:22:42.735Z,22.90
2022-08-19T18:27:35.275Z,22.90
2022-08-19T18:32:33.894Z,22.90
2022-08-19T18:37:26.821Z,22.80
2022-08-19T18:42:38.155Z,22.80
2022-08-19T18:47:48.812Z,22.80
2022-08-19T18:52:41.696Z,22.80
2022-08-19T18:57:34.528Z,22.80
2022-08-19T19:02:28.149Z,22.70
2022-08-19T19:07:20.709Z,22.70
2022-08-19T19:12:14.263Z,22.70
2022-08-19T19:17:12.735Z,22.60
2022-08-19T19:22:05.832Z,22.60
2022-08-19T19:27:01.562Z,22.60
2022-08-19T19:31:56.207Z,22.50
2022-08-19T19:36:51.466Z,22.50
2022-08-19T19:41:44.523Z,22.50
2022-08-19T19:46:38.042Z,22.50
2022-08-19T19:51:31.059Z,22.40
2022-08-19T19:56:30.495Z,22.40
2022-08-19T20:01:26.903Z,22.40
2022-08-19T20:06:20.482Z,22.30
2022-08-19T20:11:17.828Z,22.30
2022-08-19T20:16:11.127Z,22.40
2022-08-19T20:21:03.760Z,22.40
2022-08-19T20:25:56.649Z,22.40
2022-08-19T20:30:49.471Z,22.40
2022-08-19T20:35:43.970Z,22.40
2022-08-19T20:40:37.992Z,22.30
2022-08-19T20:45:33.649Z,22.30
2022-08-19T20:50:28.791Z,22.30
2022-08-19T20:55:22.893Z,22.20
2022-08-19T21:00:16.256Z,22.20
2022-08-19T21:05:10.102Z,22.20
2022-08-19T21:10:02.680Z,22.20
2022-08-19T21:14:56.999Z,22.20
2022-08-19T21:19:49.724Z,22.20
2022-08-19T21:24:43.265Z,22.10
2022-08-19T21:29:38.223Z,21.90
2022-08-19T21:34:30.694Z,22.00
2022-08-19T21:39:23.035Z,22.00
2022-08-19T21:44:15.422Z,22.10
2022-08-19T21:49:07.713Z,22.10
2022-08-19T21:53:59.970Z,22.10
2022-08-19T21:58:52.836Z,22.10
2022-08-19T22:03:45.393Z,22.10
2022-08-19T22:08:37.769Z,22.10
2022-08-19T22:13:39.909Z,22.10
2022-08-19T22:18:35.233Z,22.10
2022-08-19T22:23:27.536Z,22.00
2022-08-19T22:28:28.820Z,22.00
2022-08-19T22:33:22.622Z,22.00
2022-08-19T22:38:16.209Z,22.00
2022-08-19T22:43:24.748Z,22.00
2022-08-19T22:48:19.437Z,21.90
2022-08-19T22:53:12.459Z,21.90
2022-08-19T22:58:05.274Z,21.90
2022-08-19T23:02:59.257Z,22.00
2022-08-19T23:07:52.907Z,22.00
2022-08-19T23:12:48.269Z,21.90
2022-08-19T23:17:41.145Z,21.90
2022-08-19T23:22:33.790Z,21.90
2022-08-19T23:27:44.422Z,21.80
2022-08-19T23:32:36.834Z,21.90
2022-08-19T23:37:30.515Z,22.00
2022-08-19T23:42:26.225Z,21.90
2022-08-19T23:47:18.488Z,21.80
2022-08-19T23:52:10.866Z,21.80
2022-08-19T23:57:03.284Z,21.80
